createdAt,value
2023-06-19T00:00:37.494Z,24.50
2023-06-19T00:03:39.226Z,24.50
2023-06-19T00:06:40.913Z,24.50
2023-06-19T00:09:42.549Z,24.50
2023-06-19T00:12:44.152Z,24.60
2023-06-19T00:15:45.894Z,24.60
2023-06-19T00:18:47.757Z,24.50
2023-06-19T00:21:49.883Z,24.50
2023-06-19T00:24:52.912Z,24.50
2023-06-19T00:27:54.566Z,24.40
2023-06-19T00:30:56.384Z,24.50
2023-06-19T00:33:58.490Z,24.50
2023-06-19T00:37:00.180Z,24.40
2023-06-19T00:40:01.841Z,24.40
2023-06-19T00:43:03.915Z,24.30
2023-06-19T00:46:05.836Z,24.20
2023-06-19T00:49:08.641Z,24.10
2023-06-19T00:52:10.266Z,24.10
2023-06-19T00:55:12.284Z,24.00
2023-06-19T00:58:14.112Z,23.80
2023-06-19T01:01:15.938Z,23.70
2023-06-19T01:04:17.784Z,23.60
2023-06-19T01:07:28.979Z,23.50
2023-06-19T01:10:37.611Z,23.30
2023-06-19T01:14:00.964Z,23.30
2023-06-19T01:17:03.368Z,23.20
2023-06-19T01:20:11.717Z,23.10
2023-06-19T01:23:13.443Z,23.00
2023-06-19T01:26:19.409Z,23.00
2023-06-19T01:29:21.419Z,23.00
2023-06-19T01:32:30.731Z,22.90
2023-06-19T01:35:37.937Z,22.90
2023-06-19T01:38:41.789Z,22.90
2023-06-19T01:41:44.006Z,22.80
2023-06-19T01:44:45.834Z,22.80
2023-06-19T01:47:47.724Z,22.80
2023-06-19T01:50:50.713Z,22.70
2023-06-19T01:53:52.458Z,22.60
2023-06-19T01:56:54.131Z,22.50
2023-06-19T01:59:55.730Z,22.50
2023-06-19T02:02:57.563Z,22.20
2023-06-19T02:06:01.481Z,22.00
2023-06-19T02:09:03.299Z,21.90
2023-06-19T02:12:05.245Z,21.70
2023-06-19T02:15:07.534Z,21.60
2023-06-19T02:18:09.671Z,21.60
2023-06-19T02:21:11.457Z,21.50
2023-06-19T02:24:13.089Z,21.50
2023-06-19T02:27:15.072Z,21.50
2023-06-19T02:30:16.768Z,21.40
2023-06-19T02:33:18.371Z,21.40
2023-06-19T02:36:20.373Z,21.50
2023-06-19T02:39:22.436Z,21.50
2023-06-19T02:42:24.026Z,21.50
2023-06-19T02:45:25.649Z,21.50
2023-06-19T02:48:28.174Z,21.40
2023-06-19T02:51:29.808Z,21.40
2023-06-19T02:54:31.490Z,21.40
2023-06-19T02:57:33.108Z,21.30
2023-06-19T03:00:34.722Z,21.30
2023-06-19T03:03:38.424Z,21.20
2023-06-19T03:06:40.872Z,21.10
2023-06-19T03:09:42.562Z,21.10
2023-06-19T03:12:44.162Z,21.20
2023-06-19T03:15:45.976Z,21.30
2023-06-19T03:18:50.152Z,21.30
2023-06-19T03:21:54.397Z,21.30
2023-06-19T03:24:56.042Z,21.40
2023-06-19T03:27:57.651Z,21.40
2023-06-19T03:30:59.532Z,21.40
2023-06-19T03:34:01.354Z,21.50
2023-06-19T03:37:02.976Z,21.50
2023-06-19T03:40:06.572Z,21.60
2023-06-19T03:43:08.176Z,21.70
2023-06-19T03:46:09.887Z,21.70
2023-06-19T03:49:11.541Z,21.80
2023-06-19T03:52:13.143Z,21.90
2023-06-19T03:55:14.765Z,21.90
2023-06-19T03:58:16.546Z,21.90
2023-06-19T04:01:18.276Z,22.00
2023-06-19T04:04:19.992Z,22.00
2023-06-19T04:07:21.647Z,22.00
2023-06-19T04:10:23.400Z,22.10
2023-06-19T04:13:27.027Z,22.00
2023-06-19T04:16:28.750Z,22.10
2023-06-19T04:19:30.492Z,22.10
2023-06-19T04:22:32.317Z,22.20
2023-06-19T04:25:35.741Z,22.20
2023-06-19T04:28:37.332Z,22.30
2023-06-19T04:31:42.732Z,22.40
2023-06-19T04:34:46.978Z,22.50
2023-06-19T04:37:49.988Z,22.60
2023-06-19T04:40:52.548Z,22.90
2023-06-19T04:43:54.165Z,23.30
2023-06-19T04:47:02.066Z,23.50
2023-06-19T04:50:04.009Z,23.70
2023-06-19T04:53:06.834Z,24.00
2023-06-19T04:56:09.492Z,24.30
2023-06-19T04:59:11.093Z,24.60
2023-06-19T05:02:12.800Z,24.90
2023-06-19T05:05:14.895Z,25.00
2023-06-19T05:08:16.604Z,25.10
2023-06-19T05:11:18.353Z,25.00
2023-06-19T05:14:20.011Z,24.90
2023-06-19T05:17:21.840Z,24.90
2023-06-19T05:20:23.788Z,24.90
2023-06-19T05:23:25.941Z,24.80
2023-06-19T05:26:27.666Z,24.80
2023-06-19T05:29:30.548Z,24.70
2023-06-19T05:32:32.296Z,24.70
2023-06-19T05:35:34.031Z,24.80
2023-06-19T05:38:35.661Z,24.80
2023-06-19T05:41:37.341Z,24.80
2023-06-19T05:44:39.047Z,24.80
2023-06-19T05:47:40.856Z,24.80
2023-06-19T05:50:42.474Z,24.80
2023-06-19T05:53:44.695Z,24.80
2023-06-19T05:56:46.495Z,24.80
2023-06-19T05:59:48.942Z,24.80
2023-06-19T06:02:52.613Z,24.90
2023-06-19T06:05:54.399Z,25.10
2023-06-19T06:08:56.178Z,25.20
2023-06-19T06:11:57.970Z,25.20
2023-06-19T06:14:59.635Z,25.00
2023-06-19T06:18:01.692Z,25.00
2023-06-19T06:21:03.636Z,25.30
2023-06-19T06:24:05.780Z,25.20
2023-06-19T06:27:07.639Z,25.10
2023-06-19T06:30:09.921Z,25.10
2023-06-19T06:33:11.542Z,25.00
2023-06-19T06:36:25.668Z,25.00
2023-06-19T06:39:31.718Z,25.30
2023-06-19T06:42:33.296Z,25.50
2023-06-19T06:45:35.033Z,25.70
2023-06-19T06:48:37.212Z,25.90
2023-06-19T06:51:39.265Z,25.90
2023-06-19T06:54:40.944Z,26.10
2023-06-19T06:57:42.605Z,26.30
2023-06-19T07:00:44.226Z,26.40
2023-06-19T07:03:46.398Z,26.60
2023-06-19T07:06:48.391Z,26.70
2023-06-19T07:09:50.101Z,26.90
2023-06-19T07:12:52.363Z,26.90
2023-06-19T07:15:54.052Z,27.10
2023-06-19T07:18:55.654Z,27.40
2023-06-19T07:21:57.445Z,27.50
2023-06-19T07:24:59.161Z,27.50
2023-06-19T07:28:02.208Z,27.60
2023-06-19T07:31:04.600Z,27.60
2023-06-19T07:34:06.240Z,27.70
2023-06-19T07:37:07.921Z,27.80
2023-06-19T07:40:11.015Z,27.60
2023-06-19T07:43:12.663Z,27.60
2023-06-19T07:46:16.250Z,27.50
2023-06-19T07:49:17.923Z,27.60
2023-06-19T07:52:19.520Z,27.80
2023-06-19T07:55:21.322Z,27.60
2023-06-19T07:58:23.235Z,27.50
2023-06-19T08:01:24.893Z,27.60
2023-06-19T08:04:26.523Z,27.70
2023-06-19T08:07:28.171Z,27.60
2023-06-19T08:10:30.104Z,27.80
2023-06-19T08:13:32.031Z,27.90
2023-06-19T08:16:33.842Z,28.00
2023-06-19T08:19:35.614Z,27.90
2023-06-19T08:22:37.301Z,27.80
2023-06-19T08:25:38.898Z,27.90
2023-06-19T08:28:42.423Z,27.90
2023-06-19T08:31:44.374Z,28.00
2023-06-19T08:34:46.044Z,28.10
2023-06-19T08:37:47.655Z,28.30
2023-06-19T08:40:49.693Z,28.60
2023-06-19T08:43:51.345Z,28.80
2023-06-19T08:46:53.157Z,28.70
2023-06-19T08:49:54.755Z,28.60
2023-06-19T08:52:56.883Z,28.70
2023-06-19T08:55:58.767Z,29.10
2023-06-19T08:59:09.218Z,29.40
2023-06-19T09:02:10.844Z,29.60
2023-06-19T09:05:17.856Z,29.90
2023-06-19T09:08:20.900Z,30.10
2023-06-19T09:11:22.526Z,30.20
2023-06-19T09:14:45.429Z,30.20
2023-06-19T09:17:47.183Z,30.10
2023-06-19T09:20:49.068Z,29.80
2023-06-19T09:23:53.957Z,29.60
2023-06-19T09:27:07.140Z,29.30
2023-06-19T09:30:15.852Z,29.00
2023-06-19T09:33:17.509Z,29.00
2023-06-19T09:36:19.332Z,29.00
2023-06-19T09:39:24.354Z,29.00
2023-06-19T09:42:35.411Z,28.90
2023-06-19T09:45:37.355Z,29.00
2023-06-19T09:48:47.374Z,28.90
2023-06-19T09:51:51.880Z,29.10
2023-06-19T09:54:54.893Z,29.60
2023-06-19T09:57:56.889Z,29.80
2023-06-19T10:01:00.556Z,29.90
2023-06-19T10:04:09.820Z,30.10
2023-06-19T10:07:23.825Z,30.30
2023-06-19T10:10:27.852Z,30.40
2023-06-19T10:13:36.063Z,30.50
2023-06-19T10:16:37.752Z,30.30
2023-06-19T10:19:49.954Z,30.10
2023-06-19T10:22:53.438Z,30.10
2023-06-19T10:25:55.374Z,29.90
2023-06-19T10:28:57.006Z,30.20
2023-06-19T10:31:58.616Z,30.10
2023-06-19T10:35:00.248Z,30.10
2023-06-19T10:38:02.122Z,30.10
2023-06-19T10:41:03.739Z,30.10
2023-06-19T10:44:11.764Z,29.70
2023-06-19T10:47:15.513Z,29.50
2023-06-19T10:50:17.336Z,29.30
2023-06-19T10:53:30.626Z,29.30
2023-06-19T10:56:32.360Z,29.40
2023-06-19T10:59:35.597Z,29.40
2023-06-19T11:02:38.667Z,29.50
2023-06-19T11:05:45.064Z,29.50
2023-06-19T11:08:53.660Z,29.70
2023-06-19T11:11:55.346Z,29.80
2023-06-19T11:14:56.998Z,29.80
2023-06-19T11:17:59.631Z,29.90
2023-06-19T11:21:02.879Z,29.90
2023-06-19T11:24:06.574Z,30.20
2023-06-19T11:27:18.859Z,30.10
2023-06-19T11:30:31.742Z,29.90
2023-06-19T11:33:34.537Z,29.90
2023-06-19T11:36:39.805Z,30.10
2023-06-19T11:39:44.161Z,30.40
2023-06-19T11:42:52.290Z,30.30
2023-06-19T11:45:54.325Z,30.50
2023-06-19T11:49:07.847Z,30.80
2023-06-19T11:52:09.585Z,30.90
2023-06-19T11:55:11.456Z,30.70
2023-06-19T11:58:13.125Z,31.10
2023-06-19T12:01:14.761Z,31.50
2023-06-19T12:04:17.661Z,31.80
2023-06-19T12:07:19.553Z,31.90
2023-06-19T12:10:21.312Z,32.10
2023-06-19T12:13:22.954Z,32.30
2023-06-19T12:16:24.600Z,32.50
2023-06-19T12:19:28.595Z,32.50
2023-06-19T12:22:30.425Z,32.30
2023-06-19T12:25:32.333Z,32.20
2023-06-19T12:28:34.012Z,32.00
2023-06-19T12:31:37.347Z,31.90
2023-06-19T12:34:38.993Z,31.90
2023-06-19T12:37:40.622Z,31.90
2023-06-19T12:40:42.367Z,32.20
2023-06-19T12:43:43.976Z,32.10
2023-06-19T12:46:46.023Z,32.50
2023-06-19T12:49:47.703Z,32.90
2023-06-19T12:52:49.695Z,33.20
2023-06-19T12:56:00.826Z,33.30
2023-06-19T12:59:03.828Z,33.10
2023-06-19T13:02:05.608Z,33.00
2023-06-19T13:05:08.256Z,33.20
2023-06-19T13:08:09.939Z,33.30
2023-06-19T13:11:11.554Z,33.30
2023-06-19T13:14:13.239Z,33.40
2023-06-19T13:17:15.418Z,33.50
2023-06-19T13:20:17.446Z,33.60
2023-06-19T13:23:19.056Z,33.70
2023-06-19T13:26:21.021Z,33.70
2023-06-19T13:29:22.637Z,34.10
2023-06-19T13:32:24.300Z,34.30
2023-06-19T13:35:25.907Z,34.40
2023-06-19T13:38:27.570Z,34.40
2023-06-19T13:41:31.977Z,34.40
2023-06-19T13:44:33.681Z,34.40
2023-06-19T13:47:36.448Z,34.60
2023-06-19T13:50:38.074Z,34.70
2023-06-19T13:53:40.149Z,34.80
2023-06-19T13:56:41.851Z,35.20
2023-06-19T13:59:44.302Z,35.30
2023-06-19T14:02:46.278Z,35.00
2023-06-19T14:05:48.006Z,35.00
2023-06-19T14:08:49.664Z,34.70
2023-06-19T14:11:51.343Z,34.60
2023-06-19T14:14:53.094Z,34.30
2023-06-19T14:17:54.843Z,34.00
2023-06-19T14:20:56.521Z,33.50
2023-06-19T14:23:58.172Z,33.60
2023-06-19T14:26:59.877Z,33.70
2023-06-19T14:30:01.569Z,33.60
2023-06-19T14:33:03.555Z,33.40
2023-06-19T14:36:06.383Z,33.10
2023-06-19T14:39:08.020Z,33.00
2023-06-19T14:42:10.769Z,33.20
2023-06-19T14:45:12.760Z,33.60
2023-06-19T14:48:14.588Z,34.00
2023-06-19T14:51:16.333Z,34.30
2023-06-19T14:54:18.871Z,34.20
2023-06-19T14:57:20.566Z,34.10
2023-06-19T15:00:22.348Z,34.00
2023-06-19T15:03:24.223Z,34.00
2023-06-19T15:06:26.762Z,33.50
2023-06-19T15:09:28.369Z,33.20
2023-06-19T15:12:30.144Z,33.20
2023-06-19T15:15:31.842Z,33.00
2023-06-19T15:18:33.570Z,32.90
2023-06-19T15:21:35.217Z,32.90
2023-06-19T15:24:36.996Z,33.00
2023-06-19T15:27:38.755Z,32.90
2023-06-19T15:30:40.372Z,32.70
2023-06-19T15:33:42.157Z,32.70
2023-06-19T15:36:44.372Z,32.40
2023-06-19T15:39:46.014Z,32.30
2023-06-19T15:42:47.649Z,32.30
2023-06-19T15:45:49.290Z,32.30
2023-06-19T15:48:51.618Z,32.30
2023-06-19T15:51:53.288Z,32.40
2023-06-19T15:54:54.954Z,32.70
2023-06-19T15:57:56.662Z,32.80
2023-06-19T16:00:58.921Z,32.80
2023-06-19T16:04:01.751Z,32.90
2023-06-19T16:07:03.906Z,32.80
2023-06-19T16:10:06.176Z,32.70
2023-06-19T16:13:08.006Z,32.60
2023-06-19T16:16:09.780Z,32.40
2023-06-19T16:19:11.587Z,32.30
2023-06-19T16:22:13.259Z,32.20
2023-06-19T16:25:14.939Z,32.10
2023-06-19T16:28:16.565Z,32.00
2023-06-19T16:31:18.999Z,32.10
2023-06-19T16:34:20.683Z,32.30
2023-06-19T16:37:22.388Z,32.30
2023-06-19T16:40:26.078Z,32.70
2023-06-19T16:43:28.399Z,33.40
2023-06-19T16:46:30.090Z,33.60
2023-06-19T16:49:31.870Z,34.00
2023-06-19T16:52:33.936Z,34.20
2023-06-19T16:55:35.603Z,34.10
2023-06-19T16:58:37.561Z,33.90
2023-06-19T17:01:39.294Z,33.50
2023-06-19T17:04:40.980Z,33.40
2023-06-19T17:07:42.613Z,33.50
2023-06-19T17:10:44.379Z,33.80
2023-06-19T17:13:46.032Z,33.60
2023-06-19T17:16:47.773Z,33.10
2023-06-19T17:19:49.482Z,32.70
2023-06-19T17:22:51.294Z,32.30
2023-06-19T17:25:52.940Z,32.60
2023-06-19T17:28:54.630Z,33.30
2023-06-19T17:31:57.736Z,33.70
2023-06-19T17:35:00.827Z,34.10
2023-06-19T17:38:02.548Z,34.30
2023-06-19T17:41:05.495Z,34.00
2023-06-19T17:44:07.603Z,33.60
2023-06-19T17:47:09.280Z,33.30
2023-06-19T17:50:13.032Z,32.90
2023-06-19T17:53:14.745Z,32.50
2023-06-19T17:56:18.102Z,32.20
2023-06-19T17:59:19.874Z,31.90
2023-06-19T18:02:21.757Z,31.30
2023-06-19T18:05:23.437Z,30.70
2023-06-19T18:08:25.028Z,30.60
2023-06-19T18:11:26.712Z,30.40
2023-06-19T18:14:28.435Z,30.40
2023-06-19T18:17:30.218Z,30.40
2023-06-19T18:20:32.153Z,30.30
2023-06-19T18:23:34.016Z,30.20
2023-06-19T18:26:35.701Z,30.10
2023-06-19T18:29:37.322Z,30.00
2023-06-19T18:32:39.015Z,30.00
2023-06-19T18:35:40.794Z,29.90
2023-06-19T18:38:42.468Z,29.80
2023-06-19T18:41:44.091Z,29.70
2023-06-19T18:44:45.887Z,29.50
2023-06-19T18:47:47.564Z,29.30
2023-06-19T18:50:50.214Z,29.00
2023-06-19T18:53:51.878Z,28.80
2023-06-19T18:56:53.550Z,28.70
2023-06-19T18:59:56.327Z,28.70
2023-06-19T19:02:58.320Z,28.60
2023-06-19T19:06:00.300Z,28.40
2023-06-19T19:09:01.947Z,28.30
2023-06-19T19:12:03.865Z,28.20
2023-06-19T19:15:06.419Z,28.10
2023-06-19T19:18:09.694Z,28.00
2023-06-19T19:21:11.494Z,27.90
2023-06-19T19:24:13.291Z,27.80
2023-06-19T19:27:14.960Z,27.70
2023-06-19T19:30:16.627Z,27.60
2023-06-19T19:33:18.427Z,27.60
2023-06-19T19:36:20.139Z,27.40
2023-06-19T19:39:21.764Z,27.40
2023-06-19T19:42:24.059Z,27.30
2023-06-19T19:45:25.703Z,27.20
2023-06-19T19:48:27.613Z,27.10
2023-06-19T19:51:29.242Z,27.00
2023-06-19T19:54:30.903Z,27.00
2023-06-19T19:57:32.486Z,26.90
2023-06-19T20:00:34.076Z,26.80
2023-06-19T20:03:38.258Z,26.80
2023-06-19T20:06:39.932Z,26.70
2023-06-19T20:09:43.708Z,26.60
2023-06-19T20:12:45.340Z,26.60
2023-06-19T20:15:47.887Z,26.50
2023-06-19T20:18:49.706Z,26.40
2023-06-19T20:21:51.339Z,26.20
2023-06-19T20:24:53.012Z,26.10
2023-06-19T20:28:07.400Z,26.00
2023-06-19T20:31:10.101Z,25.90
2023-06-19T20:34:12.333Z,25.90
2023-06-19T20:37:14.143Z,25.90
2023-06-19T20:40:15.781Z,25.80
2023-06-19T20:43:17.547Z,25.80
2023-06-19T20:46:19.643Z,25.80
2023-06-19T20:49:21.282Z,25.80
2023-06-19T20:52:23.096Z,25.70
2023-06-19T20:55:24.748Z,25.70
2023-06-19T20:58:28.328Z,25.70
2023-06-19T21:01:30.149Z,25.60
2023-06-19T21:04:32.523Z,25.50
2023-06-19T21:07:34.292Z,25.40
2023-06-19T21:10:36.014Z,25.40
2023-06-19T21:13:37.630Z,25.20
2023-06-19T21:16:39.342Z,25.10
2023-06-19T21:19:41.169Z,25.10
2023-06-19T21:22:42.807Z,25.10
2023-06-19T21:25:44.409Z,25.00
2023-06-19T21:28:46.144Z,25.00
2023-06-19T21:31:47.786Z,24.90
2023-06-19T21:34:49.401Z,24.80
2023-06-19T21:37:50.995Z,24.70
2023-06-19T21:40:52.626Z,24.60
2023-06-19T21:43:54.263Z,24.60
2023-06-19T21:46:55.945Z,24.60
2023-06-19T21:49:57.583Z,24.50
2023-06-19T21:52:59.221Z,24.50
2023-06-19T21:56:01.079Z,24.40
2023-06-19T21:59:02.879Z,24.40
2023-06-19T22:02:04.877Z,24.40
2023-06-19T22:05:07.331Z,24.40
2023-06-19T22:08:09.038Z,24.30
2023-06-19T22:11:10.944Z,24.20
2023-06-19T22:14:13.351Z,24.20
2023-06-19T22:17:14.975Z,24.20
2023-06-19T22:20:19.110Z,24.20
2023-06-19T22:23:20.743Z,24.30
2023-06-19T22:26:22.558Z,24.30
2023-06-19T22:29:24.160Z,24.30
2023-06-19T22:32:25.824Z,24.40
2023-06-19T22:35:27.791Z,24.40
2023-06-19T22:38:29.797Z,24.50
2023-06-19T22:41:31.513Z,24.50
2023-06-19T22:44:33.424Z,24.50
2023-06-19T22:47:39.037Z,24.60
2023-06-19T22:50:40.672Z,24.60
2023-06-19T22:53:42.862Z,24.60
2023-06-19T22:56:44.476Z,24.60
2023-06-19T22:59:46.162Z,24.50
2023-06-19T23:02:48.254Z,24.50
2023-06-19T23:05:50.247Z,24.50
2023-06-19T23:08:51.837Z,24.50
2023-06-19T23:11:55.157Z,24.40
2023-06-19T23:14:57.005Z,24.40
2023-06-19T23:17:58.952Z,24.30
2023-06-19T23:21:00.781Z,24.30
2023-06-19T23:24:02.958Z,24.20
2023-06-19T23:27:04.892Z,24.10
2023-06-19T23:30:07.333Z,24.00
2023-06-19T23:33:08.987Z,23.90
2023-06-19T23:36:10.741Z,23.80
2023-06-19T23:39:12.354Z,23.80
2023-06-19T23:42:13.998Z,23.80
2023-06-19T23:45:15.680Z,23.80
2023-06-19T23:48:17.316Z,23.70
2023-06-19T23:51:19.215Z,23.60
2023-06-19T23:54:22.091Z,23.50
2023-06-19T23:57:23.713Z,23.40
